sensor_id;sensor_type;location;lat;lon;timestamp;temperature;humidity
71672;DHT22;62112;45.638;11.714;2023-02-04T00:01:07;18.70;64.60
71672;DHT22;62112;45.638;11.714;2023-02-04T00:03:34;18.70;64.60
71672;DHT22;62112;45.638;11.714;2023-02-04T00:06:01;18.70;64.60
71672;DHT22;62112;45.638;11.714;2023-02-04T00:08:27;18.60;64.80
71672;DHT22;62112;45.638;11.714;2023-02-04T00:10:55;18.60;64.20
71672;DHT22;62112;45.638;11.714;2023-02-04T00:13:21;18.70;64.00
71672;DHT22;62112;45.638;11.714;2023-02-04T00:15:48;18.70;64.40
71672;DHT22;62112;45.638;11.714;2023-02-04T00:18:17;18.60;64.40
71672;DHT22;62112;45.638;11.714;2023-02-04T00:20:44;18.60;64.30
71672;DHT22;62112;45.638;11.714;2023-02-04T00:23:10;18.60;64.50
71672;DHT22;62112;45.638;11.714;2023-02-04T00:25:36;18.70;64.50
71672;DHT22;62112;45.638;11.714;2023-02-04T00:28:02;18.60;64.30
71672;DHT22;62112;45.638;11.714;2023-02-04T00:30:28;18.60;64.40
71672;DHT22;62112;45.638;11.714;2023-02-04T00:32:55;18.60;64.10
71672;DHT22;62112;45.638;11.714;2023-02-04T00:35:23;18.60;64.20
71672;DHT22;62112;45.638;11.714;2023-02-04T00:37:50;18.60;64.50
71672;DHT22;62112;45.638;11.714;2023-02-04T00:40:19;18.60;64.40
71672;DHT22;62112;45.638;11.714;2023-02-04T00:42:48;18.60;63.90
71672;DHT22;62112;45.638;11.714;2023-02-04T00:45:15;18.50;64.30
71672;DHT22;62112;45.638;11.714;2023-02-04T00:47:42;18.50;64.10
71672;DHT22;62112;45.638;11.714;2023-02-04T00:50:09;18.60;64.40
71672;DHT22;62112;45.638;11.714;2023-02-04T00:52:37;18.60;64.70
71672;DHT22;62112;45.638;11.714;2023-02-04T00:55:04;18.60;64.00
71672;DHT22;62112;45.638;11.714;2023-02-04T00:57:33;18.50;64.00
71672;DHT22;62112;45.638;11.714;2023-02-04T00:59:59;18.60;64.20
71672;DHT22;62112;45.638;11.714;2023-02-04T01:02:25;18.60;63.80
71672;DHT22;62112;45.638;11.714;2023-02-04T01:04:51;18.50;64.20
71672;DHT22;62112;45.638;11.714;2023-02-04T01:07:18;18.60;63.90
71672;DHT22;62112;45.638;11.714;2023-02-04T01:09:44;18.60;64.20
71672;DHT22;62112;45.638;11.714;2023-02-04T01:12:10;18.60;63.60
71672;DHT22;62112;45.638;11.714;2023-02-04T01:14:36;18.50;64.10
71672;DHT22;62112;45.638;11.714;2023-02-04T01:17:03;18.60;63.90
71672;DHT22;62112;45.638;11.714;2023-02-04T01:19:31;18.50;63.80
71672;DHT22;62112;45.638;11.714;2023-02-04T01:21:57;18.50;64.20
71672;DHT22;62112;45.638;11.714;2023-02-04T01:24:31;18.60;63.90
71672;DHT22;62112;45.638;11.714;2023-02-04T01:26:57;18.50;63.90
71672;DHT22;62112;45.638;11.714;2023-02-04T01:29:23;18.60;64.20
71672;DHT22;62112;45.638;11.714;2023-02-04T01:31:49;18.50;64.10
71672;DHT22;62112;45.638;11.714;2023-02-04T01:34:14;18.50;64.10
71672;DHT22;62112;45.638;11.714;2023-02-04T01:36:40;18.40;64.00
71672;DHT22;62112;45.638;11.714;2023-02-04T01:39:06;18.50;64.10
71672;DHT22;62112;45.638;11.714;2023-02-04T01:41:32;18.50;63.80
71672;DHT22;62112;45.638;11.714;2023-02-04T01:43:58;18.50;63.70
71672;DHT22;62112;45.638;11.714;2023-02-04T01:46:24;18.50;64.00
71672;DHT22;62112;45.638;11.714;2023-02-04T01:48:50;18.60;64.10
71672;DHT22;62112;45.638;11.714;2023-02-04T01:51:21;18.40;63.70
71672;DHT22;62112;45.638;11.714;2023-02-04T01:53:51;18.50;63.70
71672;DHT22;62112;45.638;11.714;2023-02-04T01:56:20;18.50;64.20
71672;DHT22;62112;45.638;11.714;2023-02-04T01:58:47;18.50;63.90
71672;DHT22;62112;45.638;11.714;2023-02-04T02:01:31;18.50;63.80
71672;DHT22;62112;45.638;11.714;2023-02-04T02:03:58;18.50;64.10
71672;DHT22;62112;45.638;11.714;2023-02-04T02:06:24;18.50;63.80
71672;DHT22;62112;45.638;11.714;2023-02-04T02:08:50;18.50;63.80
71672;DHT22;62112;45.638;11.714;2023-02-04T02:11:16;18.50;64.10
71672;DHT22;62112;45.638;11.714;2023-02-04T02:13:41;18.50;63.80
71672;DHT22;62112;45.638;11.714;2023-02-04T02:16:07;18.50;64.10
71672;DHT22;62112;45.638;11.714;2023-02-04T02:18:33;18.50;63.90
71672;DHT22;62112;45.638;11.714;2023-02-04T02:21:04;18.50;63.70
71672;DHT22;62112;45.638;11.714;2023-02-04T02:23:46;18.50;63.70
71672;DHT22;62112;45.638;11.714;2023-02-04T02:26:14;18.50;63.90
71672;DHT22;62112;45.638;11.714;2023-02-04T02:28:41;18.50;63.80
71672;DHT22;62112;45.638;11.714;2023-02-04T02:31:07;18.40;63.80
71672;DHT22;62112;45.638;11.714;2023-02-04T02:33:34;18.50;63.60
71672;DHT22;62112;45.638;11.714;2023-02-04T02:36:00;18.40;63.60
71672;DHT22;62112;45.638;11.714;2023-02-04T02:38:26;18.50;63.70
71672;DHT22;62112;45.638;11.714;2023-02-04T02:40:52;18.40;63.30
71672;DHT22;62112;45.638;11.714;2023-02-04T02:43:22;18.40;63.80
71672;DHT22;62112;45.638;11.714;2023-02-04T02:45:49;18.40;63.70
71672;DHT22;62112;45.638;11.714;2023-02-04T02:48:15;18.40;63.40
71672;DHT22;62112;45.638;11.714;2023-02-04T02:50:41;18.50;63.70
71672;DHT22;62112;45.638;11.714;2023-02-04T02:53:14;18.40;63.20
71672;DHT22;62112;45.638;11.714;2023-02-04T02:55:42;18.40;63.40
71672;DHT22;62112;45.638;11.714;2023-02-04T02:58:29;18.40;63.40
71672;DHT22;62112;45.638;11.714;2023-02-04T03:00:58;18.40;63.20
71672;DHT22;62112;45.638;11.714;2023-02-04T03:03:28;18.40;63.30
71672;DHT22;62112;45.638;11.714;2023-02-04T03:06:01;18.50;63.40
71672;DHT22;62112;45.638;11.714;2023-02-04T03:08:28;18.40;63.40
71672;DHT22;62112;45.638;11.714;2023-02-04T03:10:54;18.40;63.50
71672;DHT22;62112;45.638;11.714;2023-02-04T03:13:20;18.40;63.50
71672;DHT22;62112;45.638;11.714;2023-02-04T03:15:47;18.40;63.30
71672;DHT22;62112;45.638;11.714;2023-02-04T03:18:15;18.40;63.80
71672;DHT22;62112;45.638;11.714;2023-02-04T03:20:42;18.40;63.70
71672;DHT22;62112;45.638;11.714;2023-02-04T03:23:08;18.40;63.70
71672;DHT22;62112;45.638;11.714;2023-02-04T03:25:35;18.40;63.90
71672;DHT22;62112;45.638;11.714;2023-02-04T03:28:01;18.40;63.50
71672;DHT22;62112;45.638;11.714;2023-02-04T03:30:30;18.30;63.60
71672;DHT22;62112;45.638;11.714;2023-02-04T03:32:56;18.40;63.70
71672;DHT22;62112;45.638;11.714;2023-02-04T03:35:22;18.40;63.80
71672;DHT22;62112;45.638;11.714;2023-02-04T03:37:47;18.30;63.70
71672;DHT22;62112;45.638;11.714;2023-02-04T03:40:13;18.30;63.80
71672;DHT22;62112;45.638;11.714;2023-02-04T03:42:39;18.30;63.70
71672;DHT22;62112;45.638;11.714;2023-02-04T03:45:06;18.40;63.50
71672;DHT22;62112;45.638;11.714;2023-02-04T03:47:31;18.30;63.70
71672;DHT22;62112;45.638;11.714;2023-02-04T03:49:57;18.30;63.90
71672;DHT22;62112;45.638;11.714;2023-02-04T03:52:23;18.30;63.50
71672;DHT22;62112;45.638;11.714;2023-02-04T03:54:49;18.20;63.80
71672;DHT22;62112;45.638;11.714;2023-02-04T03:57:15;18.30;63.80
71672;DHT22;62112;45.638;11.714;2023-02-04T03:59:41;18.30;63.50
71672;DHT22;62112;45.638;11.714;2023-02-04T04:02:07;18.20;63.60
71672;DHT22;62112;45.638;11.714;2023-02-04T04:04:33;18.20;63.70
71672;DHT22;62112;45.638;11.714;2023-02-04T04:06:59;18.30;63.70
71672;DHT22;62112;45.638;11.714;2023-02-04T04:09:25;18.30;63.70
71672;DHT22;62112;45.638;11.714;2023-02-04T04:11:51;18.30;63.60
71672;DHT22;62112;45.638;11.714;2023-02-04T04:14:17;18.20;63.50
71672;DHT22;62112;45.638;11.714;2023-02-04T04:16:42;18.30;63.60
71672;DHT22;62112;45.638;11.714;2023-02-04T04:19:08;18.30;63.90
71672;DHT22;62112;45.638;11.714;2023-02-04T04:21:34;18.20;63.60
71672;DHT22;62112;45.638;11.714;2023-02-04T04:24:00;18.20;63.80
71672;DHT22;62112;45.638;11.714;2023-02-04T04:26:26;18.20;63.90
71672;DHT22;62112;45.638;11.714;2023-02-04T04:28:52;18.20;63.70
71672;DHT22;62112;45.638;11.714;2023-02-04T04:31:18;18.20;63.50
71672;DHT22;62112;45.638;11.714;2023-02-04T04:33:44;18.10;64.90
71672;DHT22;62112;45.638;11.714;2023-02-04T04:36:10;18.20;63.60
71672;DHT22;62112;45.638;11.714;2023-02-04T04:38:35;18.20;63.50
71672;DHT22;62112;45.638;11.714;2023-02-04T04:41:01;18.20;63.90
71672;DHT22;62112;45.638;11.714;2023-02-04T04:43:27;18.20;63.80
71672;DHT22;62112;45.638;11.714;2023-02-04T04:45:53;18.30;63.50
71672;DHT22;62112;45.638;11.714;2023-02-04T04:48:19;18.20;63.80
71672;DHT22;62112;45.638;11.714;2023-02-04T04:50:46;18.20;63.20
71672;DHT22;62112;45.638;11.714;2023-02-04T04:53:11;18.30;63.40
71672;DHT22;62112;45.638;11.714;2023-02-04T04:55:38;18.20;63.60
71672;DHT22;62112;45.638;11.714;2023-02-04T04:58:04;18.20;63.40
71672;DHT22;62112;45.638;11.714;2023-02-04T05:00:31;18.20;63.70
71672;DHT22;62112;45.638;11.714;2023-02-04T05:02:56;18.20;64.00
71672;DHT22;62112;45.638;11.714;2023-02-04T05:05:22;18.20;63.60
71672;DHT22;62112;45.638;11.714;2023-02-04T05:07:48;18.10;64.80
71672;DHT22;62112;45.638;11.714;2023-02-04T05:10:14;18.10;64.90
71672;DHT22;62112;45.638;11.714;2023-02-04T05:12:40;18.20;63.50
71672;DHT22;62112;45.638;11.714;2023-02-04T05:15:06;18.10;65.00
71672;DHT22;62112;45.638;11.714;2023-02-04T05:17:33;18.10;64.90
71672;DHT22;62112;45.638;11.714;2023-02-04T05:19:59;18.10;64.90
71672;DHT22;62112;45.638;11.714;2023-02-04T05:22:25;18.10;65.10
71672;DHT22;62112;45.638;11.714;2023-02-04T05:24:50;18.10;64.70
71672;DHT22;62112;45.638;11.714;2023-02-04T05:27:16;18.10;64.90
71672;DHT22;62112;45.638;11.714;2023-02-04T05:29:42;18.20;63.80
71672;DHT22;62112;45.638;11.714;2023-02-04T05:32:08;18.20;63.70
71672;DHT22;62112;45.638;11.714;2023-02-04T05:34:33;18.10;65.00
71672;DHT22;62112;45.638;11.714;2023-02-04T05:36:59;18.10;65.00
71672;DHT22;62112;45.638;11.714;2023-02-04T05:39:26;18.20;63.50
71672;DHT22;62112;45.638;11.714;2023-02-04T05:41:52;18.10;64.80
71672;DHT22;62112;45.638;11.714;2023-02-04T05:44:18;18.10;65.50
71672;DHT22;62112;45.638;11.714;2023-02-04T05:46:43;18.10;64.90
71672;DHT22;62112;45.638;11.714;2023-02-04T05:49:09;18.10;64.60
71672;DHT22;62112;45.638;11.714;2023-02-04T05:51:35;18.10;64.60
71672;DHT22;62112;45.638;11.714;2023-02-04T05:54:01;18.10;64.80
71672;DHT22;62112;45.638;11.714;2023-02-04T05:56:27;18.10;64.90
71672;DHT22;62112;45.638;11.714;2023-02-04T05:58:52;18.10;64.90
71672;DHT22;62112;45.638;11.714;2023-02-04T06:01:18;18.20;63.30
71672;DHT22;62112;45.638;11.714;2023-02-04T06:03:44;18.10;64.80
71672;DHT22;62112;45.638;11.714;2023-02-04T06:06:10;18.10;65.10
71672;DHT22;62112;45.638;11.714;2023-02-04T06:08:36;18.00;64.70
71672;DHT22;62112;45.638;11.714;2023-02-04T06:11:01;18.00;64.80
71672;DHT22;62112;45.638;11.714;2023-02-04T06:13:27;18.00;64.80
71672;DHT22;62112;45.638;11.714;2023-02-04T06:15:53;18.00;64.80
71672;DHT22;62112;45.638;11.714;2023-02-04T06:18:19;18.00;64.20
71672;DHT22;62112;45.638;11.714;2023-02-04T06:20:45;17.90;64.80
71672;DHT22;62112;45.638;11.714;2023-02-04T06:23:11;17.90;65.00
71672;DHT22;62112;45.638;11.714;2023-02-04T06:25:36;18.00;64.90
71672;DHT22;62112;45.638;11.714;2023-02-04T06:28:02;17.90;64.90
71672;DHT22;62112;45.638;11.714;2023-02-04T06:30:28;18.00;64.60
71672;DHT22;62112;45.638;11.714;2023-02-04T06:32:54;17.90;64.90
71672;DHT22;62112;45.638;11.714;2023-02-04T06:35:20;17.90;64.90
71672;DHT22;62112;45.638;11.714;2023-02-04T06:37:46;17.90;64.80
71672;DHT22;62112;45.638;11.714;2023-02-04T06:40:12;17.90;64.80
71672;DHT22;62112;45.638;11.714;2023-02-04T06:42:38;17.90;65.00
71672;DHT22;62112;45.638;11.714;2023-02-04T06:45:04;18.00;64.60
71672;DHT22;62112;45.638;11.714;2023-02-04T06:47:30;17.90;64.90
71672;DHT22;62112;45.638;11.714;2023-02-04T06:49:55;18.00;64.50
71672;DHT22;62112;45.638;11.714;2023-02-04T06:52:21;17.90;65.30
71672;DHT22;62112;45.638;11.714;2023-02-04T06:54:47;18.00;64.60
71672;DHT22;62112;45.638;11.714;2023-02-04T06:57:13;18.00;64.70
71672;DHT22;62112;45.638;11.714;2023-02-04T06:59:39;18.00;65.00
71672;DHT22;62112;45.638;11.714;2023-02-04T07:02:09;18.00;64.90
71672;DHT22;62112;45.638;11.714;2023-02-04T07:04:36;17.90;64.70
71672;DHT22;62112;45.638;11.714;2023-02-04T07:07:02;17.90;64.70
71672;DHT22;62112;45.638;11.714;2023-02-04T07:09:29;17.80;64.90
71672;DHT22;62112;45.638;11.714;2023-02-04T07:11:57;17.90;64.60
71672;DHT22;62112;45.638;11.714;2023-02-04T07:14:24;18.00;64.50
71672;DHT22;62112;45.638;11.714;2023-02-04T07:16:54;17.90;64.80
71672;DHT22;62112;45.638;11.714;2023-02-04T07:19:23;17.90;64.70
71672;DHT22;62112;45.638;11.714;2023-02-04T07:21:50;17.90;64.90
71672;DHT22;62112;45.638;11.714;2023-02-04T07:24:21;17.90;64.50
71672;DHT22;62112;45.638;11.714;2023-02-04T07:26:52;17.90;64.80
71672;DHT22;62112;45.638;11.714;2023-02-04T07:29:24;17.90;64.80
71672;DHT22;62112;45.638;11.714;2023-02-04T07:31:51;18.00;64.70
71672;DHT22;62112;45.638;11.714;2023-02-04T07:34:18;17.90;65.00
71672;DHT22;62112;45.638;11.714;2023-02-04T07:36:44;17.80;64.60
71672;DHT22;62112;45.638;11.714;2023-02-04T07:39:09;17.70;64.60
71672;DHT22;62112;45.638;11.714;2023-02-04T07:41:35;17.90;64.60
71672;DHT22;62112;45.638;11.714;2023-02-04T07:44:02;17.90;64.60
71672;DHT22;62112;45.638;11.714;2023-02-04T07:46:28;17.90;65.00
71672;DHT22;62112;45.638;11.714;2023-02-04T07:48:53;17.90;64.50
71672;DHT22;62112;45.638;11.714;2023-02-04T07:51:20;18.00;64.40
71672;DHT22;62112;45.638;11.714;2023-02-04T07:53:45;18.00;64.80
71672;DHT22;62112;45.638;11.714;2023-02-04T07:56:11;17.90;64.80
71672;DHT22;62112;45.638;11.714;2023-02-04T07:58:37;18.00;64.80
71672;DHT22;62112;45.638;11.714;2023-02-04T08:01:03;18.10;65.10
71672;DHT22;62112;45.638;11.714;2023-02-04T08:03:29;18.00;65.10
71672;DHT22;62112;45.638;11.714;2023-02-04T08:05:55;18.10;65.00
71672;DHT22;62112;45.638;11.714;2023-02-04T08:08:20;18.10;65.30
71672;DHT22;62112;45.638;11.714;2023-02-04T08:10:47;18.20;64.10
71672;DHT22;62112;45.638;11.714;2023-02-04T08:13:13;18.20;64.30
71672;DHT22;62112;45.638;11.714;2023-02-04T08:15:39;18.30;64.20
71672;DHT22;62112;45.638;11.714;2023-02-04T08:18:06;18.30;64.40
71672;DHT22;62112;45.638;11.714;2023-02-04T08:20:32;18.30;64.10
71672;DHT22;62112;45.638;11.714;2023-02-04T08:22:59;18.30;64.20
71672;DHT22;62112;45.638;11.714;2023-02-04T08:25:27;18.40;63.90
71672;DHT22;62112;45.638;11.714;2023-02-04T08:28:08;18.40;63.80
71672;DHT22;62112;45.638;11.714;2023-02-04T08:30:34;18.40;64.40
71672;DHT22;62112;45.638;11.714;2023-02-04T08:33:03;18.50;64.20
71672;DHT22;62112;45.638;11.714;2023-02-04T08:35:31;18.60;64.00
71672;DHT22;62112;45.638;11.714;2023-02-04T08:37:57;18.60;63.80
71672;DHT22;62112;45.638;11.714;2023-02-04T08:40:23;18.70;63.60
71672;DHT22;62112;45.638;11.714;2023-02-04T08:42:49;18.70;63.10
71672;DHT22;62112;45.638;11.714;2023-02-04T08:45:17;18.70;63.70
71672;DHT22;62112;45.638;11.714;2023-02-04T08:47:46;18.80;63.80
71672;DHT22;62112;45.638;11.714;2023-02-04T08:50:12;18.80;63.30
71672;DHT22;62112;45.638;11.714;2023-02-04T08:52:38;18.90;63.10
71672;DHT22;62112;45.638;11.714;2023-02-04T08:55:04;19.00;63.20
71672;DHT22;62112;45.638;11.714;2023-02-04T08:57:30;19.00;63.20
71672;DHT22;62112;45.638;11.714;2023-02-04T08:59:56;19.00;63.20
71672;DHT22;62112;45.638;11.714;2023-02-04T09:02:21;19.10;62.70
71672;DHT22;62112;45.638;11.714;2023-02-04T09:04:47;19.10;62.50
71672;DHT22;62112;45.638;11.714;2023-02-04T09:07:13;19.10;62.20
71672;DHT22;62112;45.638;11.714;2023-02-04T09:09:39;19.10;62.20
71672;DHT22;62112;45.638;11.714;2023-02-04T09:12:05;19.30;61.90
71672;DHT22;62112;45.638;11.714;2023-02-04T09:14:32;19.30;61.60
71672;DHT22;62112;45.638;11.714;2023-02-04T09:16:57;19.30;61.50
71672;DHT22;62112;45.638;11.714;2023-02-04T09:19:23;19.30;61.40
71672;DHT22;62112;45.638;11.714;2023-02-04T09:21:53;19.30;61.20
71672;DHT22;62112;45.638;11.714;2023-02-04T09:24:19;19.40;61.10
71672;DHT22;62112;45.638;11.714;2023-02-04T09:26:48;19.50;61.30
71672;DHT22;62112;45.638;11.714;2023-02-04T09:29:14;19.50;61.50
71672;DHT22;62112;45.638;11.714;2023-02-04T09:31:40;19.50;61.20
71672;DHT22;62112;45.638;11.714;2023-02-04T09:34:06;19.50;60.90
71672;DHT22;62112;45.638;11.714;2023-02-04T09:36:32;19.60;60.70
71672;DHT22;62112;45.638;11.714;2023-02-04T09:39:04;19.70;61.00
71672;DHT22;62112;45.638;11.714;2023-02-04T09:41:31;19.60;61.20
71672;DHT22;62112;45.638;11.714;2023-02-04T09:43:58;19.70;61.60
71672;DHT22;62112;45.638;11.714;2023-02-04T09:46:26;19.80;61.50
71672;DHT22;62112;45.638;11.714;2023-02-04T09:48:54;19.80;61.20
71672;DHT22;62112;45.638;11.714;2023-02-04T09:51:25;19.80;61.90
71672;DHT22;62112;45.638;11.714;2023-02-04T09:54:06;19.90;62.00
71672;DHT22;62112;45.638;11.714;2023-02-04T09:56:33;19.90;61.70
71672;DHT22;62112;45.638;11.714;2023-02-04T09:59:08;20.00;61.90
71672;DHT22;62112;45.638;11.714;2023-02-04T10:01:40;20.00;61.70
71672;DHT22;62112;45.638;11.714;2023-02-04T10:04:12;20.10;61.80
71672;DHT22;62112;45.638;11.714;2023-02-04T10:06:41;20.10;61.80
71672;DHT22;62112;45.638;11.714;2023-02-04T10:09:10;20.20;61.50
71672;DHT22;62112;45.638;11.714;2023-02-04T10:11:39;20.20;61.20
71672;DHT22;62112;45.638;11.714;2023-02-04T10:14:18;20.20;61.20
71672;DHT22;62112;45.638;11.714;2023-02-04T10:16:55;20.40;60.90
71672;DHT22;62112;45.638;11.714;2023-02-04T10:19:22;20.30;60.30
71672;DHT22;62112;45.638;11.714;2023-02-04T10:21:48;20.40;60.50
71672;DHT22;62112;45.638;11.714;2023-02-04T10:24:22;20.40;60.60
71672;DHT22;62112;45.638;11.714;2023-02-04T10:26:52;20.50;60.40
71672;DHT22;62112;45.638;11.714;2023-02-04T10:29:20;20.50;60.80
71672;DHT22;62112;45.638;11.714;2023-02-04T10:31:49;20.50;60.80
71672;DHT22;62112;45.638;11.714;2023-02-04T10:34:19;20.60;60.70
71672;DHT22;62112;45.638;11.714;2023-02-04T10:36:50;20.60;60.50
71672;DHT22;62112;45.638;11.714;2023-02-04T10:41:55;20.60;60.30
71672;DHT22;62112;45.638;11.714;2023-02-04T10:44:27;20.60;60.00
71672;DHT22;62112;45.638;11.714;2023-02-04T10:47:04;20.70;60.00
71672;DHT22;62112;45.638;11.714;2023-02-04T10:49:30;20.80;60.20
71672;DHT22;62112;45.638;11.714;2023-02-04T10:51:56;20.80;59.90
71672;DHT22;62112;45.638;11.714;2023-02-04T10:54:26;20.70;60.10
71672;DHT22;62112;45.638;11.714;2023-02-04T10:59:44;20.80;59.60
71672;DHT22;62112;45.638;11.714;2023-02-04T11:07:44;20.80;59.60
71672;DHT22;62112;45.638;11.714;2023-02-04T11:10:22;20.70;59.60
71672;DHT22;62112;45.638;11.714;2023-02-04T11:15:45;20.80;59.30
71672;DHT22;62112;45.638;11.714;2023-02-04T11:20:50;20.90;58.30
71672;DHT22;62112;45.638;11.714;2023-02-04T11:26:11;20.80;59.30
71672;DHT22;62112;45.638;11.714;2023-02-04T11:29:07;21.00;58.50
71672;DHT22;62112;45.638;11.714;2023-02-04T11:34:22;20.90;58.20
71672;DHT22;62112;45.638;11.714;2023-02-04T11:39:41;20.90;58.70
71672;DHT22;62112;45.638;11.714;2023-02-04T11:42:20;20.90;58.70
71672;DHT22;62112;45.638;11.714;2023-02-04T11:44:51;21.00;58.60
71672;DHT22;62112;45.638;11.714;2023-02-04T11:47:18;20.90;58.90
71672;DHT22;62112;45.638;11.714;2023-02-04T11:49:47;20.90;58.80
71672;DHT22;62112;45.638;11.714;2023-02-04T11:52:17;20.90;59.20
71672;DHT22;62112;45.638;11.714;2023-02-04T11:54:54;20.90;60.30
71672;DHT22;62112;45.638;11.714;2023-02-04T11:57:19;20.90;59.00
71672;DHT22;62112;45.638;11.714;2023-02-04T11:59:45;20.90;59.80
71672;DHT22;62112;45.638;11.714;2023-02-04T12:02:17;20.90;58.60
71672;DHT22;62112;45.638;11.714;2023-02-04T12:04:57;20.90;60.10
71672;DHT22;62112;45.638;11.714;2023-02-04T12:07:26;20.90;60.40
71672;DHT22;62112;45.638;11.714;2023-02-04T12:09:52;20.90;59.00
71672;DHT22;62112;45.638;11.714;2023-02-04T12:12:27;20.90;60.00
71672;DHT22;62112;45.638;11.714;2023-02-04T12:15:00;20.80;60.20
71672;DHT22;62112;45.638;11.714;2023-02-04T12:17:27;20.80;59.70
71672;DHT22;62112;45.638;11.714;2023-02-04T12:19:53;20.80;60.30
71672;DHT22;62112;45.638;11.714;2023-02-04T12:22:19;20.80;59.90
71672;DHT22;62112;45.638;11.714;2023-02-04T12:24:44;20.80;59.90
71672;DHT22;62112;45.638;11.714;2023-02-04T12:27:10;20.70;60.30
71672;DHT22;62112;45.638;11.714;2023-02-04T12:29:36;20.70;59.90
71672;DHT22;62112;45.638;11.714;2023-02-04T12:32:02;20.80;60.20
71672;DHT22;62112;45.638;11.714;2023-02-04T12:34:28;20.70;60.10
71672;DHT22;62112;45.638;11.714;2023-02-04T12:36:54;20.60;60.50
71672;DHT22;62112;45.638;11.714;2023-02-04T12:39:20;20.60;60.10
71672;DHT22;62112;45.638;11.714;2023-02-04T12:41:45;20.60;59.90
71672;DHT22;62112;45.638;11.714;2023-02-04T12:44:11;20.60;60.20
71672;DHT22;62112;45.638;11.714;2023-02-04T12:46:37;20.50;59.90
71672;DHT22;62112;45.638;11.714;2023-02-04T12:49:04;20.60;60.20
71672;DHT22;62112;45.638;11.714;2023-02-04T12:51:30;20.50;59.90
71672;DHT22;62112;45.638;11.714;2023-02-04T12:53:58;20.50;59.70
71672;DHT22;62112;45.638;11.714;2023-02-04T12:56:25;20.50;60.10
71672;DHT22;62112;45.638;11.714;2023-02-04T12:58:52;20.40;59.60
71672;DHT22;62112;45.638;11.714;2023-02-04T13:01:18;20.40;59.70
71672;DHT22;62112;45.638;11.714;2023-02-04T13:03:46;20.40;59.60
71672;DHT22;62112;45.638;11.714;2023-02-04T13:06:14;20.30;59.70
71672;DHT22;62112;45.638;11.714;2023-02-04T13:08:39;20.30;59.70
71672;DHT22;62112;45.638;11.714;2023-02-04T13:11:05;20.30;59.40
71672;DHT22;62112;45.638;11.714;2023-02-04T13:13:31;20.30;59.40
71672;DHT22;62112;45.638;11.714;2023-02-04T13:15:57;20.20;59.20
71672;DHT22;62112;45.638;11.714;2023-02-04T13:18:24;20.20;59.50
71672;DHT22;62112;45.638;11.714;2023-02-04T13:20:50;20.30;59.30
71672;DHT22;62112;45.638;11.714;2023-02-04T13:23:17;20.30;59.30
71672;DHT22;62112;45.638;11.714;2023-02-04T13:25:43;20.20;59.70
71672;DHT22;62112;45.638;11.714;2023-02-04T13:28:09;20.20;59.40
71672;DHT22;62112;45.638;11.714;2023-02-04T13:30:35;20.20;59.40
71672;DHT22;62112;45.638;11.714;2023-02-04T13:33:01;20.10;59.80
71672;DHT22;62112;45.638;11.714;2023-02-04T13:35:27;20.10;59.40
71672;DHT22;62112;45.638;11.714;2023-02-04T13:37:53;20.10;59.50
71672;DHT22;62112;45.638;11.714;2023-02-04T13:40:20;20.10;59.40
71672;DHT22;62112;45.638;11.714;2023-02-04T13:42:47;20.00;59.40
71672;DHT22;62112;45.638;11.714;2023-02-04T13:45:14;20.00;59.70
71672;DHT22;62112;45.638;11.714;2023-02-04T13:47:43;20.00;59.70
71672;DHT22;62112;45.638;11.714;2023-02-04T13:50:09;20.00;59.80
71672;DHT22;62112;45.638;11.714;2023-02-04T13:52:35;20.00;59.50
71672;DHT22;62112;45.638;11.714;2023-02-04T13:55:02;19.90;59.80
71672;DHT22;62112;45.638;11.714;2023-02-04T13:57:28;19.90;60.00
71672;DHT22;62112;45.638;11.714;2023-02-04T13:59:56;19.90;59.90
71672;DHT22;62112;45.638;11.714;2023-02-04T14:02:21;19.90;60.00
71672;DHT22;62112;45.638;11.714;2023-02-04T14:04:48;19.80;60.20
71672;DHT22;62112;45.638;11.714;2023-02-04T14:07:14;19.90;60.00
71672;DHT22;62112;45.638;11.714;2023-02-04T14:09:43;19.70;59.80
71672;DHT22;62112;45.638;11.714;2023-02-04T14:12:13;19.90;59.80
71672;DHT22;62112;45.638;11.714;2023-02-04T14:14:40;19.80;59.90
71672;DHT22;62112;45.638;11.714;2023-02-04T14:17:15;19.80;59.80
71672;DHT22;62112;45.638;11.714;2023-02-04T14:19:47;19.80;60.00
71672;DHT22;62112;45.638;11.714;2023-02-04T14:22:12;19.80;60.00
71672;DHT22;62112;45.638;11.714;2023-02-04T14:24:38;19.80;60.20
71672;DHT22;62112;45.638;11.714;2023-02-04T14:27:07;19.70;60.00
71672;DHT22;62112;45.638;11.714;2023-02-04T14:29:34;19.70;60.50
71672;DHT22;62112;45.638;11.714;2023-02-04T14:32:00;19.70;60.50
71672;DHT22;62112;45.638;11.714;2023-02-04T14:34:26;19.70;60.50
71672;DHT22;62112;45.638;11.714;2023-02-04T14:37:00;19.60;61.10
71672;DHT22;62112;45.638;11.714;2023-02-04T14:39:26;19.70;60.60
71672;DHT22;62112;45.638;11.714;2023-02-04T14:41:52;19.70;61.40
71672;DHT22;62112;45.638;11.714;2023-02-04T14:44:17;19.60;61.30
71672;DHT22;62112;45.638;11.714;2023-02-04T14:46:48;19.70;61.60
71672;DHT22;62112;45.638;11.714;2023-02-04T14:49:15;19.60;62.10
71672;DHT22;62112;45.638;11.714;2023-02-04T14:51:41;19.60;61.90
71672;DHT22;62112;45.638;11.714;2023-02-04T14:54:07;19.60;62.10
71672;DHT22;62112;45.638;11.714;2023-02-04T14:56:33;19.50;61.90
71672;DHT22;62112;45.638;11.714;2023-02-04T14:58:58;19.50;62.20
71672;DHT22;62112;45.638;11.714;2023-02-04T15:01:24;19.40;62.50
71672;DHT22;62112;45.638;11.714;2023-02-04T15:03:52;19.50;62.00
71672;DHT22;62112;45.638;11.714;2023-02-04T15:06:18;19.60;62.60
71672;DHT22;62112;45.638;11.714;2023-02-04T15:08:44;19.50;62.90
71672;DHT22;62112;45.638;11.714;2023-02-04T15:11:10;19.50;62.40
71672;DHT22;62112;45.638;11.714;2023-02-04T15:13:36;19.50;62.50
71672;DHT22;62112;45.638;11.714;2023-02-04T15:16:02;19.50;62.90
71672;DHT22;62112;45.638;11.714;2023-02-04T15:18:28;19.50;63.10
71672;DHT22;62112;45.638;11.714;2023-02-04T15:20:54;19.50;63.10
71672;DHT22;62112;45.638;11.714;2023-02-04T15:23:20;19.50;63.20
71672;DHT22;62112;45.638;11.714;2023-02-04T15:25:45;19.50;63.20
71672;DHT22;62112;45.638;11.714;2023-02-04T15:28:12;19.40;62.80
71672;DHT22;62112;45.638;11.714;2023-02-04T15:30:38;19.40;62.80
71672;DHT22;62112;45.638;11.714;2023-02-04T15:33:04;19.40;62.90
71672;DHT22;62112;45.638;11.714;2023-02-04T15:35:29;19.40;63.30
71672;DHT22;62112;45.638;11.714;2023-02-04T15:37:55;19.40;63.50
71672;DHT22;62112;45.638;11.714;2023-02-04T15:40:21;19.40;63.40